Clearwater, Idaho
Current Conditions -  °F | °C
As of 1:35 PM on Friday 31 Oct 2014 (Local Time) from KGIC Reporting Station
Clear Clear  
Wind Chill: 68°   Ceiling: Unl
Heat Index: 68°   Visibility: 10mi
Dew Point: 31°   Wind: 16mph
Humidity: 25%   Direction: 230°SW
Pressure: 29.78"   Gusts: 23mph
Location:  46.2989°N, 115.619°W
Report Text: KGIC 312035Z AUTO 23014G20KT 10SM CLR 20/00 A2978 RMK AO1 T02011005
Loading
Personal Weather Stations






























Interactive Weather Map
Tropical Storm Tracking
New forecast layout! Learn more

10-Day Weather Forecast

Advertisements
Track Severe Weather on mobile